sensor_id;sensor_type;location;lat;lon;timestamp;P1;durP1;ratioP1;P2;durP2;ratioP2
7029;SDS011;3556;53.500;10.176;2023-08-01T00:00:30;2.50;;;2.30;;
7029;SDS011;3556;53.500;10.176;2023-08-01T00:02:56;2.43;;;2.30;;
7029;SDS011;3556;53.500;10.176;2023-08-01T00:05:22;3.20;;;2.43;;
7029;SDS011;3556;53.500;10.176;2023-08-01T00:07:48;2.83;;;2.20;;
7029;SDS011;3556;53.500;10.176;2023-08-01T00:10:14;2.63;;;2.47;;
7029;SDS011;3556;53.500;10.176;2023-08-01T00:12:41;2.17;;;2.07;;
7029;SDS011;3556;53.500;10.176;2023-08-01T00:15:07;2.20;;;2.00;;
7029;SDS011;3556;53.500;10.176;2023-08-01T00:17:33;2.10;;;2.00;;
7029;SDS011;3556;53.500;10.176;2023-08-01T00:19:59;5.23;;;1.90;;
7029;SDS011;3556;53.500;10.176;2023-08-01T00:22:26;2.10;;;1.90;;
7029;SDS011;3556;53.500;10.176;2023-08-01T00:24:52;1.90;;;1.80;;
7029;SDS011;3556;53.500;10.176;2023-08-01T00:27:17;2.20;;;2.10;;
7029;SDS011;3556;53.500;10.176;2023-08-01T00:29:43;2.17;;;2.03;;
7029;SDS011;3556;53.500;10.176;2023-08-01T00:32:09;2.60;;;1.77;;
7029;SDS011;3556;53.500;10.176;2023-08-01T00:34:35;2.33;;;2.10;;
7029;SDS011;3556;53.500;10.176;2023-08-01T00:37:01;3.60;;;2.00;;
7029;SDS011;3556;53.500;10.176;2023-08-01T00:39:26;1.90;;;1.80;;
7029;SDS011;3556;53.500;10.176;2023-08-01T00:41:52;1.60;;;1.50;;
7029;SDS011;3556;53.500;10.176;2023-08-01T00:44:18;2.20;;;1.93;;
7029;SDS011;3556;53.500;10.176;2023-08-01T00:46:43;5.20;;;1.87;;
7029;SDS011;3556;53.500;10.176;2023-08-01T00:49:10;1.73;;;1.63;;
7029;SDS011;3556;53.500;10.176;2023-08-01T00:51:35;1.90;;;1.80;;
7029;SDS011;3556;53.500;10.176;2023-08-01T00:54:01;3.10;;;1.60;;
7029;SDS011;3556;53.500;10.176;2023-08-01T00:56:27;2.00;;;1.80;;
7029;SDS011;3556;53.500;10.176;2023-08-01T00:58:53;1.90;;;1.80;;
7029;SDS011;3556;53.500;10.176;2023-08-01T01:01:18;1.97;;;1.87;;
7029;SDS011;3556;53.500;10.176;2023-08-01T01:03:44;1.87;;;1.70;;
7029;SDS011;3556;53.500;10.176;2023-08-01T01:06:14;2.10;;;1.37;;
7029;SDS011;3556;53.500;10.176;2023-08-01T01:08:47;1.77;;;1.67;;
7029;SDS011;3556;53.500;10.176;2023-08-01T01:11:12;1.80;;;1.70;;
7029;SDS011;3556;53.500;10.176;2023-08-01T01:13:38;4.03;;;1.27;;
7029;SDS011;3556;53.500;10.176;2023-08-01T01:16:04;2.13;;;1.93;;
7029;SDS011;3556;53.500;10.176;2023-08-01T01:18:29;1.87;;;1.50;;
7029;SDS011;3556;53.500;10.176;2023-08-01T01:20:55;1.80;;;1.70;;
7029;SDS011;3556;53.500;10.176;2023-08-01T01:23:21;1.40;;;1.30;;
7029;SDS011;3556;53.500;10.176;2023-08-01T01:25:47;3.23;;;2.03;;
7029;SDS011;3556;53.500;10.176;2023-08-01T01:28:15;1.70;;;1.60;;
7029;SDS011;3556;53.500;10.176;2023-08-01T01:30:41;1.60;;;1.50;;
7029;SDS011;3556;53.500;10.176;2023-08-01T01:33:08;1.70;;;1.60;;
7029;SDS011;3556;53.500;10.176;2023-08-01T01:35:35;1.50;;;1.40;;
7029;SDS011;3556;53.500;10.176;2023-08-01T01:38:01;2.00;;;1.90;;
7029;SDS011;3556;53.500;10.176;2023-08-01T01:40:30;1.50;;;1.40;;
7029;SDS011;3556;53.500;10.176;2023-08-01T01:42:57;1.67;;;1.57;;
7029;SDS011;3556;53.500;10.176;2023-08-01T01:45:23;6.70;;;1.83;;
7029;SDS011;3556;53.500;10.176;2023-08-01T01:47:48;3.70;;;1.80;;
7029;SDS011;3556;53.500;10.176;2023-08-01T01:50:14;2.30;;;2.10;;
7029;SDS011;3556;53.500;10.176;2023-08-01T01:52:40;1.93;;;1.80;;
7029;SDS011;3556;53.500;10.176;2023-08-01T01:55:05;1.90;;;1.80;;
7029;SDS011;3556;53.500;10.176;2023-08-01T01:57:31;1.87;;;1.77;;
7029;SDS011;3556;53.500;10.176;2023-08-01T01:59:57;1.90;;;1.80;;
7029;SDS011;3556;53.500;10.176;2023-08-01T02:02:22;1.97;;;1.87;;
7029;SDS011;3556;53.500;10.176;2023-08-01T02:04:49;2.07;;;1.97;;
7029;SDS011;3556;53.500;10.176;2023-08-01T02:07:15;2.20;;;2.00;;
7029;SDS011;3556;53.500;10.176;2023-08-01T02:09:41;2.30;;;2.10;;
7029;SDS011;3556;53.500;10.176;2023-08-01T02:12:07;2.00;;;1.80;;
7029;SDS011;3556;53.500;10.176;2023-08-01T02:14:34;6.70;;;2.20;;
7029;SDS011;3556;53.500;10.176;2023-08-01T02:17:01;2.30;;;2.10;;
7029;SDS011;3556;53.500;10.176;2023-08-01T02:19:26;2.50;;;2.30;;
7029;SDS011;3556;53.500;10.176;2023-08-01T02:21:53;2.90;;;2.70;;
7029;SDS011;3556;53.500;10.176;2023-08-01T02:24:19;2.43;;;2.33;;
7029;SDS011;3556;53.500;10.176;2023-08-01T02:26:44;2.63;;;2.43;;
7029;SDS011;3556;53.500;10.176;2023-08-01T02:29:10;2.80;;;2.60;;
7029;SDS011;3556;53.500;10.176;2023-08-01T02:31:35;3.20;;;2.80;;
7029;SDS011;3556;53.500;10.176;2023-08-01T02:34:01;3.20;;;2.63;;
7029;SDS011;3556;53.500;10.176;2023-08-01T02:36:27;3.70;;;3.10;;
7029;SDS011;3556;53.500;10.176;2023-08-01T02:38:52;2.97;;;2.67;;
7029;SDS011;3556;53.500;10.176;2023-08-01T02:41:18;3.00;;;2.77;;
7029;SDS011;3556;53.500;10.176;2023-08-01T02:43:44;3.10;;;2.90;;
7029;SDS011;3556;53.500;10.176;2023-08-01T02:46:09;4.47;;;3.50;;
7029;SDS011;3556;53.500;10.176;2023-08-01T02:48:35;4.00;;;3.40;;
7029;SDS011;3556;53.500;10.176;2023-08-01T02:51:01;3.50;;;3.20;;
7029;SDS011;3556;53.500;10.176;2023-08-01T02:53:27;6.20;;;4.40;;
7029;SDS011;3556;53.500;10.176;2023-08-01T02:55:52;4.10;;;3.70;;
7029;SDS011;3556;53.500;10.176;2023-08-01T02:58:18;6.07;;;4.50;;
7029;SDS011;3556;53.500;10.176;2023-08-01T03:00:44;4.73;;;4.23;;
7029;SDS011;3556;53.500;10.176;2023-08-01T03:03:09;4.67;;;4.23;;
7029;SDS011;3556;53.500;10.176;2023-08-01T03:05:36;4.73;;;4.17;;
7029;SDS011;3556;53.500;10.176;2023-08-01T03:08:02;6.60;;;4.70;;
7029;SDS011;3556;53.500;10.176;2023-08-01T03:10:29;5.73;;;4.67;;
7029;SDS011;3556;53.500;10.176;2023-08-01T03:12:55;5.67;;;5.10;;
7029;SDS011;3556;53.500;10.176;2023-08-01T03:15:20;6.50;;;4.60;;
7029;SDS011;3556;53.500;10.176;2023-08-01T03:17:46;10.63;;;5.10;;
7029;SDS011;3556;53.500;10.176;2023-08-01T03:20:11;5.23;;;4.67;;
7029;SDS011;3556;53.500;10.176;2023-08-01T03:22:40;5.40;;;4.87;;
7029;SDS011;3556;53.500;10.176;2023-08-01T03:25:06;8.83;;;6.13;;
7029;SDS011;3556;53.500;10.176;2023-08-01T03:27:36;8.23;;;5.67;;
7029;SDS011;3556;53.500;10.176;2023-08-01T03:30:02;8.00;;;5.50;;
7029;SDS011;3556;53.500;10.176;2023-08-01T03:32:29;8.03;;;6.17;;
7029;SDS011;3556;53.500;10.176;2023-08-01T03:34:55;6.90;;;5.43;;
7029;SDS011;3556;53.500;10.176;2023-08-01T03:37:21;5.93;;;5.33;;
7029;SDS011;3556;53.500;10.176;2023-08-01T03:39:46;9.70;;;6.30;;
7029;SDS011;3556;53.500;10.176;2023-08-01T03:42:12;16.53;;;6.03;;
7029;SDS011;3556;53.500;10.176;2023-08-01T03:44:38;7.87;;;6.37;;
7029;SDS011;3556;53.500;10.176;2023-08-01T03:47:03;7.70;;;6.07;;
7029;SDS011;3556;53.500;10.176;2023-08-01T03:49:29;8.20;;;6.00;;
7029;SDS011;3556;53.500;10.176;2023-08-01T03:51:55;7.87;;;5.80;;
7029;SDS011;3556;53.500;10.176;2023-08-01T03:54:20;7.40;;;6.00;;
7029;SDS011;3556;53.500;10.176;2023-08-01T03:56:46;7.53;;;6.23;;
7029;SDS011;3556;53.500;10.176;2023-08-01T03:59:13;8.80;;;6.27;;
7029;SDS011;3556;53.500;10.176;2023-08-01T04:01:39;15.07;;;5.83;;
7029;SDS011;3556;53.500;10.176;2023-08-01T04:04:05;8.87;;;6.30;;
7029;SDS011;3556;53.500;10.176;2023-08-01T04:06:31;7.90;;;6.20;;
7029;SDS011;3556;53.500;10.176;2023-08-01T04:08:57;9.90;;;6.43;;
7029;SDS011;3556;53.500;10.176;2023-08-01T04:11:24;6.97;;;5.53;;
7029;SDS011;3556;53.500;10.176;2023-08-01T04:13:50;8.03;;;6.27;;
7029;SDS011;3556;53.500;10.176;2023-08-01T04:16:16;7.00;;;5.53;;
7029;SDS011;3556;53.500;10.176;2023-08-01T04:18:42;6.93;;;5.63;;
7029;SDS011;3556;53.500;10.176;2023-08-01T04:21:07;6.20;;;5.57;;
7029;SDS011;3556;53.500;10.176;2023-08-01T04:23:33;7.07;;;5.20;;
7029;SDS011;3556;53.500;10.176;2023-08-01T04:25:59;6.80;;;5.73;;
7029;SDS011;3556;53.500;10.176;2023-08-01T04:28:25;8.40;;;6.03;;
7029;SDS011;3556;53.500;10.176;2023-08-01T04:30:51;12.03;;;6.07;;
7029;SDS011;3556;53.500;10.176;2023-08-01T04:33:17;6.90;;;6.03;;
7029;SDS011;3556;53.500;10.176;2023-08-01T04:35:43;8.47;;;6.47;;
7029;SDS011;3556;53.500;10.176;2023-08-01T04:38:09;6.43;;;5.27;;
7029;SDS011;3556;53.500;10.176;2023-08-01T04:40:35;7.77;;;5.63;;
7029;SDS011;3556;53.500;10.176;2023-08-01T04:43:01;10.47;;;5.53;;
7029;SDS011;3556;53.500;10.176;2023-08-01T04:45:27;6.60;;;5.40;;
7029;SDS011;3556;53.500;10.176;2023-08-01T04:47:53;8.83;;;6.00;;
7029;SDS011;3556;53.500;10.176;2023-08-01T04:50:19;8.10;;;5.67;;
7029;SDS011;3556;53.500;10.176;2023-08-01T04:52:44;10.13;;;6.27;;
7029;SDS011;3556;53.500;10.176;2023-08-01T04:55:10;6.90;;;5.73;;
7029;SDS011;3556;53.500;10.176;2023-08-01T04:57:36;5.40;;;4.90;;
7029;SDS011;3556;53.500;10.176;2023-08-01T05:00:02;9.33;;;6.33;;
7029;SDS011;3556;53.500;10.176;2023-08-01T05:02:28;8.03;;;5.93;;
7029;SDS011;3556;53.500;10.176;2023-08-01T05:04:54;6.40;;;5.60;;
7029;SDS011;3556;53.500;10.176;2023-08-01T05:07:20;6.27;;;5.33;;
7029;SDS011;3556;53.500;10.176;2023-08-01T05:09:45;6.83;;;5.70;;
7029;SDS011;3556;53.500;10.176;2023-08-01T05:12:11;7.17;;;5.90;;
7029;SDS011;3556;53.500;10.176;2023-08-01T05:14:36;9.63;;;5.77;;
7029;SDS011;3556;53.500;10.176;2023-08-01T05:17:02;10.47;;;6.40;;
7029;SDS011;3556;53.500;10.176;2023-08-01T05:19:28;10.50;;;6.00;;
7029;SDS011;3556;53.500;10.176;2023-08-01T05:21:54;7.53;;;5.80;;
7029;SDS011;3556;53.500;10.176;2023-08-01T05:24:20;11.00;;;6.63;;
7029;SDS011;3556;53.500;10.176;2023-08-01T05:26:46;9.00;;;5.20;;
7029;SDS011;3556;53.500;10.176;2023-08-01T05:29:12;8.60;;;6.50;;
7029;SDS011;3556;53.500;10.176;2023-08-01T05:31:37;11.60;;;6.80;;
7029;SDS011;3556;53.500;10.176;2023-08-01T05:34:03;9.00;;;5.97;;
7029;SDS011;3556;53.500;10.176;2023-08-01T05:36:29;8.80;;;5.60;;
7029;SDS011;3556;53.500;10.176;2023-08-01T05:38:54;7.87;;;5.63;;
7029;SDS011;3556;53.500;10.176;2023-08-01T05:41:21;5.33;;;4.83;;
7029;SDS011;3556;53.500;10.176;2023-08-01T05:43:48;6.53;;;5.00;;
7029;SDS011;3556;53.500;10.176;2023-08-01T05:46:14;5.90;;;4.30;;
7029;SDS011;3556;53.500;10.176;2023-08-01T05:48:39;5.30;;;3.60;;
7029;SDS011;3556;53.500;10.176;2023-08-01T05:51:05;4.40;;;4.00;;
7029;SDS011;3556;53.500;10.176;2023-08-01T05:53:31;5.17;;;3.93;;
7029;SDS011;3556;53.500;10.176;2023-08-01T05:55:56;4.90;;;4.40;;
7029;SDS011;3556;53.500;10.176;2023-08-01T05:58:22;4.27;;;3.87;;
7029;SDS011;3556;53.500;10.176;2023-08-01T06:00:48;8.83;;;4.70;;
7029;SDS011;3556;53.500;10.176;2023-08-01T06:03:14;4.63;;;4.13;;
7029;SDS011;3556;53.500;10.176;2023-08-01T06:05:39;6.60;;;4.87;;
7029;SDS011;3556;53.500;10.176;2023-08-01T06:08:06;5.73;;;5.13;;
7029;SDS011;3556;53.500;10.176;2023-08-01T06:10:32;4.27;;;3.90;;
7029;SDS011;3556;53.500;10.176;2023-08-01T06:12:58;4.37;;;3.97;;
7029;SDS011;3556;53.500;10.176;2023-08-01T06:15:24;5.43;;;3.80;;
7029;SDS011;3556;53.500;10.176;2023-08-01T06:17:50;4.37;;;3.83;;
7029;SDS011;3556;53.500;10.176;2023-08-01T06:20:15;4.77;;;3.60;;
7029;SDS011;3556;53.500;10.176;2023-08-01T06:22:41;8.30;;;4.07;;
7029;SDS011;3556;53.500;10.176;2023-08-01T06:25:07;6.60;;;4.20;;
7029;SDS011;3556;53.500;10.176;2023-08-01T06:27:33;6.10;;;4.00;;
7029;SDS011;3556;53.500;10.176;2023-08-01T06:29:59;5.43;;;4.00;;
7029;SDS011;3556;53.500;10.176;2023-08-01T06:32:25;5.03;;;3.93;;
7029;SDS011;3556;53.500;10.176;2023-08-01T06:34:51;5.87;;;4.50;;
7029;SDS011;3556;53.500;10.176;2023-08-01T06:37:16;8.57;;;4.60;;
7029;SDS011;3556;53.500;10.176;2023-08-01T06:39:42;7.07;;;4.77;;
7029;SDS011;3556;53.500;10.176;2023-08-01T06:42:07;7.60;;;5.00;;
7029;SDS011;3556;53.500;10.176;2023-08-01T06:44:33;7.13;;;4.30;;
7029;SDS011;3556;53.500;10.176;2023-08-01T06:46:59;10.90;;;5.47;;
7029;SDS011;3556;53.500;10.176;2023-08-01T06:49:24;9.23;;;5.33;;
7029;SDS011;3556;53.500;10.176;2023-08-01T06:51:50;11.53;;;6.00;;
7029;SDS011;3556;53.500;10.176;2023-08-01T06:54:16;7.43;;;5.67;;
7029;SDS011;3556;53.500;10.176;2023-08-01T06:56:41;10.73;;;5.60;;
7029;SDS011;3556;53.500;10.176;2023-08-01T06:59:12;14.00;;;5.60;;
7029;SDS011;3556;53.500;10.176;2023-08-01T07:01:39;7.90;;;5.27;;
7029;SDS011;3556;53.500;10.176;2023-08-01T07:04:05;6.77;;;5.10;;
7029;SDS011;3556;53.500;10.176;2023-08-01T07:06:31;13.20;;;5.20;;
7029;SDS011;3556;53.500;10.176;2023-08-01T07:08:56;7.00;;;4.47;;
7029;SDS011;3556;53.500;10.176;2023-08-01T07:11:22;5.67;;;4.67;;
7029;SDS011;3556;53.500;10.176;2023-08-01T07:13:48;3.77;;;3.40;;
7029;SDS011;3556;53.500;10.176;2023-08-01T07:16:14;7.60;;;3.43;;
7029;SDS011;3556;53.500;10.176;2023-08-01T07:18:40;4.53;;;3.87;;
7029;SDS011;3556;53.500;10.176;2023-08-01T07:21:06;7.00;;;3.90;;
7029;SDS011;3556;53.500;10.176;2023-08-01T07:23:33;5.80;;;3.40;;
7029;SDS011;3556;53.500;10.176;2023-08-01T07:25:59;9.80;;;3.73;;
7029;SDS011;3556;53.500;10.176;2023-08-01T07:28:25;3.87;;;3.27;;
7029;SDS011;3556;53.500;10.176;2023-08-01T07:31:00;4.33;;;2.67;;
7029;SDS011;3556;53.500;10.176;2023-08-01T07:33:26;3.93;;;3.27;;
7029;SDS011;3556;53.500;10.176;2023-08-01T07:35:52;3.07;;;2.63;;
7029;SDS011;3556;53.500;10.176;2023-08-01T07:38:18;3.20;;;2.50;;
7029;SDS011;3556;53.500;10.176;2023-08-01T07:40:43;9.13;;;3.10;;
7029;SDS011;3556;53.500;10.176;2023-08-01T07:43:09;6.07;;;2.90;;
7029;SDS011;3556;53.500;10.176;2023-08-01T07:45:34;3.00;;;2.67;;
7029;SDS011;3556;53.500;10.176;2023-08-01T07:48:00;7.33;;;3.20;;
7029;SDS011;3556;53.500;10.176;2023-08-01T07:50:26;7.40;;;3.20;;
7029;SDS011;3556;53.500;10.176;2023-08-01T07:52:52;4.80;;;2.80;;
7029;SDS011;3556;53.500;10.176;2023-08-01T07:55:17;6.90;;;2.90;;
7029;SDS011;3556;53.500;10.176;2023-08-01T07:57:43;8.90;;;3.13;;
7029;SDS011;3556;53.500;10.176;2023-08-01T08:00:10;8.47;;;3.37;;
7029;SDS011;3556;53.500;10.176;2023-08-01T08:02:36;3.53;;;2.70;;
7029;SDS011;3556;53.500;10.176;2023-08-01T08:05:01;6.77;;;3.00;;
7029;SDS011;3556;53.500;10.176;2023-08-01T08:07:27;7.97;;;3.30;;
7029;SDS011;3556;53.500;10.176;2023-08-01T08:09:52;9.07;;;3.63;;
7029;SDS011;3556;53.500;10.176;2023-08-01T08:12:20;11.23;;;4.63;;
7029;SDS011;3556;53.500;10.176;2023-08-01T08:14:46;8.83;;;4.10;;
7029;SDS011;3556;53.500;10.176;2023-08-01T08:17:12;6.00;;;3.57;;
7029;SDS011;3556;53.500;10.176;2023-08-01T08:19:38;6.43;;;3.73;;
7029;SDS011;3556;53.500;10.176;2023-08-01T08:22:03;7.00;;;4.07;;
7029;SDS011;3556;53.500;10.176;2023-08-01T08:24:29;5.67;;;3.70;;
7029;SDS011;3556;53.500;10.176;2023-08-01T08:26:55;6.40;;;3.60;;
7029;SDS011;3556;53.500;10.176;2023-08-01T08:29:21;11.47;;;3.67;;
7029;SDS011;3556;53.500;10.176;2023-08-01T08:31:47;9.00;;;4.67;;
7029;SDS011;3556;53.500;10.176;2023-08-01T08:34:12;10.93;;;3.93;;
7029;SDS011;3556;53.500;10.176;2023-08-01T08:36:38;7.00;;;4.20;;
7029;SDS011;3556;53.500;10.176;2023-08-01T08:39:04;14.00;;;4.30;;
7029;SDS011;3556;53.500;10.176;2023-08-01T08:41:30;7.50;;;3.87;;
7029;SDS011;3556;53.500;10.176;2023-08-01T08:44:02;6.67;;;3.90;;
7029;SDS011;3556;53.500;10.176;2023-08-01T08:46:32;5.13;;;4.33;;
7029;SDS011;3556;53.500;10.176;2023-08-01T08:49:03;6.90;;;4.80;;
7029;SDS011;3556;53.500;10.176;2023-08-01T08:51:30;10.10;;;4.63;;
7029;SDS011;3556;53.500;10.176;2023-08-01T08:53:56;8.70;;;4.90;;
7029;SDS011;3556;53.500;10.176;2023-08-01T08:56:22;9.43;;;4.90;;
7029;SDS011;3556;53.500;10.176;2023-08-01T08:58:48;10.43;;;5.20;;
7029;SDS011;3556;53.500;10.176;2023-08-01T09:01:14;6.53;;;5.10;;
7029;SDS011;3556;53.500;10.176;2023-08-01T09:03:42;5.60;;;4.70;;
7029;SDS011;3556;53.500;10.176;2023-08-01T09:06:10;9.50;;;5.40;;
7029;SDS011;3556;53.500;10.176;2023-08-01T09:08:39;11.20;;;5.30;;
7029;SDS011;3556;53.500;10.176;2023-08-01T09:11:05;9.60;;;6.23;;
7029;SDS011;3556;53.500;10.176;2023-08-01T09:13:31;11.73;;;6.97;;
7029;SDS011;3556;53.500;10.176;2023-08-01T09:15:57;8.17;;;5.77;;
7029;SDS011;3556;53.500;10.176;2023-08-01T09:18:23;9.47;;;5.83;;
7029;SDS011;3556;53.500;10.176;2023-08-01T09:20:49;7.43;;;5.80;;
7029;SDS011;3556;53.500;10.176;2023-08-01T09:23:15;8.57;;;5.40;;
7029;SDS011;3556;53.500;10.176;2023-08-01T09:25:42;5.07;;;4.30;;
7029;SDS011;3556;53.500;10.176;2023-08-01T09:28:15;6.97;;;4.83;;
7029;SDS011;3556;53.500;10.176;2023-08-01T09:30:54;9.43;;;5.10;;
7029;SDS011;3556;53.500;10.176;2023-08-01T09:33:21;5.50;;;4.00;;
7029;SDS011;3556;53.500;10.176;2023-08-01T09:35:49;5.83;;;3.87;;
7029;SDS011;3556;53.500;10.176;2023-08-01T09:38:15;4.00;;;3.47;;
7029;SDS011;3556;53.500;10.176;2023-08-01T09:40:42;3.60;;;3.30;;
7029;SDS011;3556;53.500;10.176;2023-08-01T09:43:09;6.70;;;3.10;;
7029;SDS011;3556;53.500;10.176;2023-08-01T09:45:36;4.10;;;3.70;;
7029;SDS011;3556;53.500;10.176;2023-08-01T09:48:01;3.80;;;3.50;;
7029;SDS011;3556;53.500;10.176;2023-08-01T09:50:27;4.63;;;4.13;;
7029;SDS011;3556;53.500;10.176;2023-08-01T09:52:53;4.10;;;3.50;;
7029;SDS011;3556;53.500;10.176;2023-08-01T09:55:25;6.00;;;3.90;;
7029;SDS011;3556;53.500;10.176;2023-08-01T09:57:58;5.20;;;3.27;;
7029;SDS011;3556;53.500;10.176;2023-08-01T10:00:28;4.03;;;3.47;;
7029;SDS011;3556;53.500;10.176;2023-08-01T10:02:55;2.87;;;2.53;;
7029;SDS011;3556;53.500;10.176;2023-08-01T10:05:25;2.80;;;2.60;;
7029;SDS011;3556;53.500;10.176;2023-08-01T10:07:58;3.93;;;2.50;;
7029;SDS011;3556;53.500;10.176;2023-08-01T10:10:25;5.03;;;2.37;;
7029;SDS011;3556;53.500;10.176;2023-08-01T10:12:52;3.57;;;2.73;;
7029;SDS011;3556;53.500;10.176;2023-08-01T10:15:23;5.87;;;2.97;;
7029;SDS011;3556;53.500;10.176;2023-08-01T10:17:50;5.03;;;2.63;;
7029;SDS011;3556;53.500;10.176;2023-08-01T10:20:16;3.50;;;2.20;;
7029;SDS011;3556;53.500;10.176;2023-08-01T10:22:45;3.63;;;2.70;;
7029;SDS011;3556;53.500;10.176;2023-08-01T10:25:12;3.40;;;2.80;;
7029;SDS011;3556;53.500;10.176;2023-08-01T10:27:38;4.90;;;1.83;;
7029;SDS011;3556;53.500;10.176;2023-08-01T10:30:06;2.03;;;1.93;;
7029;SDS011;3556;53.500;10.176;2023-08-01T10:32:34;2.00;;;1.90;;
7029;SDS011;3556;53.500;10.176;2023-08-01T10:35:01;2.30;;;2.10;;
7029;SDS011;3556;53.500;10.176;2023-08-01T10:37:38;3.00;;;2.00;;
7029;SDS011;3556;53.500;10.176;2023-08-01T10:40:05;7.13;;;2.00;;
7029;SDS011;3556;53.500;10.176;2023-08-01T10:42:41;1.87;;;1.60;;
7029;SDS011;3556;53.500;10.176;2023-08-01T10:45:28;2.60;;;1.77;;
7029;SDS011;3556;53.500;10.176;2023-08-01T10:47:54;1.53;;;1.43;;
7029;SDS011;3556;53.500;10.176;2023-08-01T10:50:34;2.83;;;1.70;;
7029;SDS011;3556;53.500;10.176;2023-08-01T10:53:07;2.63;;;1.67;;
7029;SDS011;3556;53.500;10.176;2023-08-01T10:55:44;4.90;;;1.87;;
7029;SDS011;3556;53.500;10.176;2023-08-01T10:58:12;1.63;;;1.53;;
7029;SDS011;3556;53.500;10.176;2023-08-01T11:00:38;2.87;;;1.63;;
7029;SDS011;3556;53.500;10.176;2023-08-01T11:03:04;2.17;;;1.30;;
7029;SDS011;3556;53.500;10.176;2023-08-01T11:05:30;1.97;;;1.30;;
7029;SDS011;3556;53.500;10.176;2023-08-01T11:07:56;1.73;;;1.43;;
7029;SDS011;3556;53.500;10.176;2023-08-01T11:10:24;2.30;;;1.50;;
7029;SDS011;3556;53.500;10.176;2023-08-01T11:12:59;1.80;;;1.70;;
7029;SDS011;3556;53.500;10.176;2023-08-01T11:15:25;6.50;;;1.60;;
7029;SDS011;3556;53.500;10.176;2023-08-01T11:17:51;1.60;;;1.37;;
7029;SDS011;3556;53.500;10.176;2023-08-01T11:20:20;1.70;;;1.40;;
7029;SDS011;3556;53.500;10.176;2023-08-01T11:22:58;1.63;;;1.53;;
7029;SDS011;3556;53.500;10.176;2023-08-01T11:25:39;1.40;;;1.30;;
7029;SDS011;3556;53.500;10.176;2023-08-01T11:28:08;1.60;;;0.70;;
7029;SDS011;3556;53.500;10.176;2023-08-01T11:30:36;1.67;;;0.60;;
7029;SDS011;3556;53.500;10.176;2023-08-01T11:33:02;1.10;;;0.77;;
7029;SDS011;3556;53.500;10.176;2023-08-01T11:35:38;3.43;;;0.70;;
7029;SDS011;3556;53.500;10.176;2023-08-01T11:38:04;1.20;;;0.50;;
7029;SDS011;3556;53.500;10.176;2023-08-01T11:40:31;1.40;;;0.90;;
7029;SDS011;3556;53.500;10.176;2023-08-01T11:42:57;1.50;;;0.70;;
7029;SDS011;3556;53.500;10.176;2023-08-01T11:45:23;1.30;;;0.90;;
7029;SDS011;3556;53.500;10.176;2023-08-01T11:47:49;1.43;;;0.70;;
7029;SDS011;3556;53.500;10.176;2023-08-01T11:50:20;1.60;;;0.70;;
7029;SDS011;3556;53.500;10.176;2023-08-01T11:52:48;3.87;;;0.70;;
7029;SDS011;3556;53.500;10.176;2023-08-01T11:55:20;1.00;;;0.60;;
7029;SDS011;3556;53.500;10.176;2023-08-01T11:57:54;1.20;;;0.70;;
7029;SDS011;3556;53.500;10.176;2023-08-01T12:00:21;1.50;;;0.70;;
7029;SDS011;3556;53.500;10.176;2023-08-01T12:02:48;1.30;;;0.60;;
7029;SDS011;3556;53.500;10.176;2023-08-01T12:05:20;1.90;;;0.80;;
7029;SDS011;3556;53.500;10.176;2023-08-01T12:07:47;1.93;;;0.60;;
7029;SDS011;3556;53.500;10.176;2023-08-01T12:10:13;1.10;;;0.70;;
7029;SDS011;3556;53.500;10.176;2023-08-01T12:12:43;1.23;;;0.70;;
7029;SDS011;3556;53.500;10.176;2023-08-01T12:15:10;1.10;;;0.73;;
7029;SDS011;3556;53.500;10.176;2023-08-01T12:17:36;1.10;;;0.70;;
7029;SDS011;3556;53.500;10.176;2023-08-01T12:20:02;2.50;;;1.03;;
7029;SDS011;3556;53.500;10.176;2023-08-01T12:22:28;1.20;;;1.00;;
7029;SDS011;3556;53.500;10.176;2023-08-01T12:24:54;2.33;;;1.30;;
7029;SDS011;3556;53.500;10.176;2023-08-01T12:27:19;2.37;;;1.10;;
7029;SDS011;3556;53.500;10.176;2023-08-01T12:29:45;2.00;;;1.17;;
7029;SDS011;3556;53.500;10.176;2023-08-01T12:32:10;1.17;;;0.93;;
7029;SDS011;3556;53.500;10.176;2023-08-01T12:34:36;1.10;;;0.67;;
7029;SDS011;3556;53.500;10.176;2023-08-01T12:37:01;2.13;;;1.00;;
7029;SDS011;3556;53.500;10.176;2023-08-01T12:39:27;1.50;;;0.90;;
7029;SDS011;3556;53.500;10.176;2023-08-01T12:41:53;3.80;;;0.90;;
7029;SDS011;3556;53.500;10.176;2023-08-01T12:44:19;1.43;;;0.80;;
7029;SDS011;3556;53.500;10.176;2023-08-01T12:46:45;1.27;;;0.90;;
7029;SDS011;3556;53.500;10.176;2023-08-01T12:49:11;1.93;;;1.00;;
7029;SDS011;3556;53.500;10.176;2023-08-01T12:51:36;1.60;;;0.80;;
7029;SDS011;3556;53.500;10.176;2023-08-01T12:54:02;1.70;;;0.97;;
7029;SDS011;3556;53.500;10.176;2023-08-01T12:56:28;1.40;;;0.80;;
7029;SDS011;3556;53.500;10.176;2023-08-01T12:58:54;1.33;;;1.00;;
7029;SDS011;3556;53.500;10.176;2023-08-01T13:01:19;2.60;;;0.83;;
7029;SDS011;3556;53.500;10.176;2023-08-01T13:03:45;1.30;;;0.77;;
7029;SDS011;3556;53.500;10.176;2023-08-01T13:06:11;3.10;;;0.90;;
7029;SDS011;3556;53.500;10.176;2023-08-01T13:08:38;1.83;;;0.93;;
7029;SDS011;3556;53.500;10.176;2023-08-01T13:11:13;1.10;;;0.90;;
7029;SDS011;3556;53.500;10.176;2023-08-01T13:13:40;1.10;;;1.00;;
7029;SDS011;3556;53.500;10.176;2023-08-01T13:16:06;1.30;;;1.00;;
7029;SDS011;3556;53.500;10.176;2023-08-01T13:18:32;1.63;;;1.30;;
7029;SDS011;3556;53.500;10.176;2023-08-01T13:20:58;2.43;;;1.00;;
7029;SDS011;3556;53.500;10.176;2023-08-01T13:23:24;1.30;;;1.20;;
7029;SDS011;3556;53.500;10.176;2023-08-01T13:25:50;1.40;;;1.30;;
7029;SDS011;3556;53.500;10.176;2023-08-01T13:28:16;1.20;;;1.10;;
7029;SDS011;3556;53.500;10.176;2023-08-01T13:30:42;2.33;;;1.10;;
7029;SDS011;3556;53.500;10.176;2023-08-01T13:33:07;1.20;;;1.07;;
7029;SDS011;3556;53.500;10.176;2023-08-01T13:35:33;1.30;;;1.20;;
7029;SDS011;3556;53.500;10.176;2023-08-01T13:37:59;1.73;;;1.17;;
7029;SDS011;3556;53.500;10.176;2023-08-01T13:40:25;1.20;;;1.07;;
7029;SDS011;3556;53.500;10.176;2023-08-01T13:42:51;1.67;;;1.10;;
7029;SDS011;3556;53.500;10.176;2023-08-01T13:45:16;1.40;;;0.80;;
7029;SDS011;3556;53.500;10.176;2023-08-01T13:47:42;2.50;;;0.90;;
7029;SDS011;3556;53.500;10.176;2023-08-01T13:50:08;1.60;;;1.00;;
7029;SDS011;3556;53.500;10.176;2023-08-01T13:52:34;2.13;;;0.87;;
7029;SDS011;3556;53.500;10.176;2023-08-01T13:55:01;1.10;;;0.87;;
7029;SDS011;3556;53.500;10.176;2023-08-01T13:57:28;1.70;;;1.27;;
7029;SDS011;3556;53.500;10.176;2023-08-01T13:59:53;1.93;;;1.20;;
7029;SDS011;3556;53.500;10.176;2023-08-01T14:02:19;2.60;;;1.20;;
7029;SDS011;3556;53.500;10.176;2023-08-01T14:04:44;1.97;;;1.30;;
7029;SDS011;3556;53.500;10.176;2023-08-01T14:07:10;2.27;;;1.17;;
7029;SDS011;3556;53.500;10.176;2023-08-01T14:09:35;2.80;;;1.40;;
7029;SDS011;3556;53.500;10.176;2023-08-01T14:12:01;2.60;;;1.20;;
7029;SDS011;3556;53.500;10.176;2023-08-01T14:14:28;4.33;;;1.00;;
7029;SDS011;3556;53.500;10.176;2023-08-01T14:16:53;1.30;;;1.00;;
7029;SDS011;3556;53.500;10.176;2023-08-01T14:19:19;1.47;;;1.07;;
7029;SDS011;3556;53.500;10.176;2023-08-01T14:21:45;1.60;;;1.10;;
7029;SDS011;3556;53.500;10.176;2023-08-01T14:24:11;1.20;;;0.90;;
7029;SDS011;3556;53.500;10.176;2023-08-01T14:26:36;2.13;;;1.00;;
7029;SDS011;3556;53.500;10.176;2023-08-01T14:29:02;1.20;;;0.80;;
7029;SDS011;3556;53.500;10.176;2023-08-01T14:31:27;2.57;;;0.80;;
7029;SDS011;3556;53.500;10.176;2023-08-01T14:33:53;1.10;;;0.80;;
7029;SDS011;3556;53.500;10.176;2023-08-01T14:36:19;2.50;;;1.03;;
7029;SDS011;3556;53.500;10.176;2023-08-01T14:38:44;1.13;;;0.83;;
7029;SDS011;3556;53.500;10.176;2023-08-01T14:41:12;1.60;;;1.00;;
7029;SDS011;3556;53.500;10.176;2023-08-01T14:43:39;1.10;;;0.70;;
7029;SDS011;3556;53.500;10.176;2023-08-01T14:46:05;1.10;;;0.70;;
7029;SDS011;3556;53.500;10.176;2023-08-01T14:48:31;3.73;;;0.80;;
7029;SDS011;3556;53.500;10.176;2023-08-01T14:50:56;1.10;;;0.80;;
7029;SDS011;3556;53.500;10.176;2023-08-01T14:53:22;1.20;;;0.70;;
7029;SDS011;3556;53.500;10.176;2023-08-01T14:55:55;4.47;;;1.10;;